createdAt,value
2022-11-13T00:02:40.977Z,9.10
2022-11-13T00:08:03.825Z,9.00
2022-11-13T00:13:30.143Z,8.90
2022-11-13T00:18:51.896Z,8.80
2022-11-13T00:24:14.799Z,9.10
2022-11-13T00:29:36.312Z,9.10
2022-11-13T00:34:58.014Z,9.10
2022-11-13T00:40:21.071Z,9.20
2022-11-13T00:45:42.597Z,9.20
2022-11-13T00:51:04.798Z,9.20
2022-11-13T00:56:28.044Z,9.20
2022-11-13T01:01:49.702Z,9.30
2022-11-13T01:07:11.307Z,9.20
2022-11-13T01:12:34.233Z,9.20
2022-11-13T01:17:55.950Z,9.00
2022-11-13T01:23:17.462Z,9.00
2022-11-13T01:28:41.290Z,9.10
2022-11-13T01:34:03.118Z,9.00
2022-11-13T01:39:24.732Z,9.00
2022-11-13T01:44:53.414Z,8.80
2022-11-13T01:50:16.213Z,8.70
2022-11-13T01:55:37.737Z,8.70
2022-11-13T02:01:00.589Z,8.60
2022-11-13T02:06:22.838Z,8.90
2022-11-13T02:11:44.806Z,8.80
2022-11-13T02:17:12.078Z,8.80
2022-11-13T02:22:37.175Z,8.40
2022-11-13T02:28:00.320Z,8.50
2022-11-13T02:33:25.107Z,8.60
2022-11-13T02:38:47.650Z,8.70
2022-11-13T02:44:10.343Z,8.40
2022-11-13T02:49:31.606Z,8.30
2022-11-13T02:54:53.242Z,8.30
2022-11-13T03:00:16.896Z,8.60
2022-11-13T03:05:38.159Z,8.30
2022-11-13T03:10:59.885Z,8.60
2022-11-13T03:16:23.134Z,8.40
2022-11-13T03:21:44.530Z,8.50
2022-11-13T03:27:06.252Z,8.60
2022-11-13T03:32:29.468Z,8.40
2022-11-13T03:37:51.449Z,8.70
2022-11-13T03:43:12.778Z,8.60
2022-11-13T03:48:35.971Z,8.50
2022-11-13T03:53:57.770Z,8.40
2022-11-13T03:59:19.146Z,8.60
2022-11-13T04:04:42.026Z,8.60
2022-11-13T04:10:03.943Z,8.40
2022-11-13T04:15:25.344Z,8.80
2022-11-13T04:20:47.981Z,8.70
2022-11-13T04:26:09.538Z,8.70
2022-11-13T04:31:31.083Z,8.50
2022-11-13T04:36:54.071Z,8.70
2022-11-13T04:42:33.258Z,8.50
2022-11-13T04:47:55.028Z,8.20
2022-11-13T04:53:17.874Z,8.40
2022-11-13T04:58:39.497Z,8.50
2022-11-13T05:04:01.185Z,8.50
2022-11-13T05:09:24.165Z,8.50
2022-11-13T05:14:45.817Z,8.40
2022-11-13T05:20:08.626Z,8.50
2022-11-13T05:25:32.321Z,8.50
2022-11-13T05:30:53.572Z,8.60
2022-11-13T05:36:16.764Z,8.70
2022-11-13T05:41:39.676Z,8.60
2022-11-13T05:47:01.512Z,8.40
2022-11-13T05:52:23.511Z,8.40
2022-11-13T05:57:46.707Z,8.30
2022-11-13T06:03:08.376Z,8.10
2022-11-13T06:08:30.727Z,8.20
2022-11-13T06:13:55.800Z,8.20
2022-11-13T06:19:17.539Z,8.00
2022-11-13T06:24:39.491Z,8.10
2022-11-13T06:30:03.332Z,8.20
2022-11-13T06:35:25.077Z,8.00
2022-11-13T06:40:46.606Z,7.90
2022-11-13T06:46:13.065Z,8.00
2022-11-13T06:51:34.711Z,7.70
2022-11-13T06:56:56.566Z,7.90
2022-11-13T07:02:19.891Z,7.80
2022-11-13T07:07:41.482Z,7.80
2022-11-13T07:13:03.321Z,7.80
2022-11-13T07:18:26.692Z,7.90
2022-11-13T07:23:50.181Z,7.70
2022-11-13T07:29:12.960Z,7.80
2022-11-13T07:34:36.064Z,7.80
2022-11-13T07:39:59.737Z,7.80
2022-11-13T07:45:21.665Z,8.00
2022-11-13T07:50:44.789Z,8.20
2022-11-13T07:56:07.521Z,8.30
2022-11-13T08:01:29.173Z,8.20
2022-11-13T08:06:52.339Z,8.10
2022-11-13T08:12:14.254Z,8.00
2022-11-13T08:17:35.822Z,7.90
2022-11-13T08:23:00.326Z,7.80
2022-11-13T08:28:22.212Z,7.80
2022-11-13T08:33:44.783Z,7.80
2022-11-13T08:39:07.832Z,7.80
2022-11-13T08:44:29.561Z,7.80
2022-11-13T08:50:04.811Z,7.70
2022-11-13T08:55:28.562Z,7.80
2022-11-13T09:00:50.402Z,8.00
2022-11-13T09:06:12.190Z,7.90
2022-11-13T09:11:35.519Z,7.90
2022-11-13T09:16:57.012Z,8.00
2022-11-13T09:22:18.880Z,8.00
2022-11-13T09:27:42.068Z,8.00
2022-11-13T09:33:03.993Z,8.10
2022-11-13T09:38:25.786Z,8.00
2022-11-13T09:43:59.295Z,8.00
2022-11-13T09:49:28.167Z,8.00
2022-11-13T09:54:50.109Z,7.90
2022-11-13T10:00:17.256Z,7.90
2022-11-13T10:05:49.000Z,7.80
2022-11-13T10:11:15.664Z,7.80
2022-11-13T10:16:44.781Z,7.80
2022-11-13T10:22:32.130Z,7.80
2022-11-13T10:27:57.369Z,7.80
2022-11-13T10:33:22.902Z,7.80
2022-11-13T10:38:50.161Z,7.90
2022-11-13T10:44:24.384Z,7.80
2022-11-13T10:49:47.424Z,7.90
2022-11-13T10:55:18.514Z,8.00
2022-11-13T11:00:44.321Z,7.90
2022-11-13T11:06:07.683Z,8.00
2022-11-13T11:11:46.870Z,7.90
2022-11-13T11:17:10.485Z,8.00
2022-11-13T11:22:38.041Z,8.00
2022-11-13T11:28:05.944Z,7.80
2022-11-13T11:33:34.790Z,7.80
2022-11-13T11:39:03.524Z,8.00
2022-11-13T11:44:32.443Z,8.00
2022-11-13T11:49:54.394Z,8.10
2022-11-13T11:55:32.367Z,8.10
2022-11-13T12:01:01.694Z,8.10
2022-11-13T12:06:35.243Z,8.10
2022-11-13T12:12:11.076Z,8.10
2022-11-13T12:17:45.936Z,8.20
2022-11-13T12:23:19.471Z,8.20
2022-11-13T12:28:49.455Z,8.20
2022-11-13T12:34:17.860Z,8.20
2022-11-13T12:39:47.573Z,8.40
2022-11-13T12:45:18.140Z,8.50
2022-11-13T12:50:39.987Z,8.40
2022-11-13T12:56:04.155Z,8.60
2022-11-13T13:01:29.571Z,8.70
2022-11-13T13:07:06.528Z,8.80
2022-11-13T13:12:40.800Z,8.80
2022-11-13T13:18:12.007Z,8.80
2022-11-13T13:23:36.037Z,8.80
2022-11-13T13:29:02.869Z,8.90
2022-11-13T13:34:38.361Z,9.10
2022-11-13T13:40:12.322Z,9.10
2022-11-13T13:45:48.592Z,9.10
2022-11-13T13:51:23.188Z,9.10
2022-11-13T13:56:45.172Z,9.20
2022-11-13T14:02:17.908Z,9.20
2022-11-13T14:07:48.494Z,9.20
2022-11-13T14:26:59.789Z,9.10
2022-11-13T14:32:24.064Z,9.00
2022-11-13T14:37:47.132Z,8.90
2022-11-13T14:43:18.182Z,8.80
2022-11-13T14:48:39.594Z,8.80
2022-11-13T14:54:07.489Z,8.70
2022-11-13T14:59:45.644Z,8.70
2022-11-13T15:05:07.003Z,8.80
2022-11-13T15:10:29.969Z,8.60
2022-11-13T15:15:53.078Z,8.60
2022-11-13T15:21:14.906Z,8.70
2022-11-13T15:26:36.448Z,8.80
2022-11-13T15:31:59.437Z,8.80
2022-11-13T15:37:21.155Z,8.60
2022-11-13T15:42:44.009Z,8.60
2022-11-13T15:48:09.902Z,8.40
2022-11-13T15:53:31.421Z,8.50
2022-11-13T15:58:53.506Z,8.50
2022-11-13T16:04:16.542Z,8.60
2022-11-13T16:09:38.117Z,8.60
2022-11-13T16:15:07.635Z,8.60
2022-11-13T16:20:39.449Z,8.80
2022-11-13T16:26:04.463Z,8.70
2022-11-13T16:31:26.216Z,9.10
2022-11-13T16:36:51.642Z,9.10
2022-11-13T16:42:14.300Z,9.00
2022-11-13T16:47:36.484Z,9.00
2022-11-13T16:52:59.172Z,8.90
2022-11-13T16:58:20.648Z,8.80
2022-11-13T17:03:42.150Z,8.80
2022-11-13T17:09:05.585Z,8.70
2022-11-13T17:14:26.953Z,8.70
2022-11-13T17:19:48.630Z,8.70
2022-11-13T17:25:11.849Z,8.60
2022-11-13T17:30:34.050Z,8.70
2022-11-13T17:35:56.221Z,8.70
2022-11-13T17:41:20.863Z,8.70
2022-11-13T17:46:42.433Z,8.80
2022-11-13T17:52:04.013Z,8.80
2022-11-13T17:57:27.336Z,8.80
2022-11-13T18:02:49.049Z,8.80
2022-11-13T18:08:12.430Z,8.70
2022-11-13T18:13:43.547Z,8.80
2022-11-13T18:19:06.966Z,8.90
2022-11-13T18:24:28.804Z,8.90
2022-11-13T18:29:52.837Z,8.80
2022-11-13T18:35:17.834Z,8.80
2022-11-13T18:40:41.685Z,8.90
2022-11-13T18:46:06.533Z,8.80
2022-11-13T18:51:29.552Z,8.90
2022-11-13T18:56:51.136Z,9.00
2022-11-13T19:02:14.291Z,8.90
2022-11-13T19:07:44.877Z,8.90
2022-11-13T19:13:06.634Z,8.90
2022-11-13T19:18:41.156Z,8.90
2022-11-13T19:24:03.443Z,8.90
2022-11-13T19:29:25.019Z,9.00
2022-11-13T19:34:50.686Z,8.90
2022-11-13T19:40:13.974Z,8.90
2022-11-13T19:45:36.989Z,9.00
2022-11-13T19:51:04.667Z,8.90
2022-11-13T19:56:28.335Z,9.00
2022-11-13T20:01:49.874Z,9.00
2022-11-13T20:07:12.812Z,9.10
2022-11-13T20:12:34.397Z,8.90
2022-11-13T20:17:56.257Z,8.90
2022-11-13T20:23:18.898Z,9.00
2022-11-13T20:28:47.492Z,8.70
2022-11-13T20:34:10.226Z,8.90
2022-11-13T20:39:33.499Z,8.70
2022-11-13T20:44:58.508Z,8.70
2022-11-13T20:50:22.363Z,8.70
2022-11-13T20:55:45.051Z,8.70
2022-11-13T21:01:08.692Z,8.60
2022-11-13T21:06:30.262Z,8.60
2022-11-13T21:11:53.295Z,8.70
2022-11-13T21:17:14.880Z,8.70
2022-11-13T21:22:37.587Z,8.80
2022-11-13T21:28:00.699Z,8.90
2022-11-13T21:33:22.075Z,8.90
2022-11-13T21:38:44.262Z,8.90
2022-11-13T21:44:15.172Z,9.00
2022-11-13T21:49:36.866Z,9.00
2022-11-13T21:55:05.962Z,9.10
2022-11-13T22:00:28.704Z,9.10
2022-11-13T22:05:50.025Z,9.10
2022-11-13T22:11:12.157Z,9.00
2022-11-13T22:16:38.901Z,8.90
2022-11-13T22:22:00.566Z,9.00
2022-11-13T22:27:22.188Z,9.00
2022-11-13T22:32:45.068Z,9.00
2022-11-13T22:38:06.631Z,8.90
2022-11-13T22:43:28.165Z,8.90
2022-11-13T22:49:08.241Z,8.90
2022-11-13T22:54:29.626Z,8.90
2022-11-13T22:59:51.204Z,9.00
2022-11-13T23:05:14.190Z,8.90
2022-11-13T23:10:35.581Z,8.90
2022-11-13T23:15:57.102Z,9.00
2022-11-13T23:21:20.409Z,9.00
2022-11-13T23:26:41.833Z,8.90
2022-11-13T23:32:03.377Z,8.80
2022-11-13T23:37:26.325Z,8.90
2022-11-13T23:42:55.221Z,8.90
2022-11-13T23:48:17.321Z,8.90
2022-11-13T23:53:40.278Z,8.80
2022-11-13T23:59:01.877Z,8.90
